Time;durP1;ratioP1;P1;durP2;ratioP2;P2;SDS_P1;SDS_P2;PMS_P1;PMS_P2;Temp;Humidity;BMP_temperature;BMP_pressure;BME280_temperature;BME280_humidity;BME280_pressure;Samples;Min_cycle;Max_cycle;Signal;HPM_P1;HPM_P2
2022/12/15 00:40:25;;;;;;;;;;;;;;;17.01;69.88;100097.75;7406947;19;1463;-74
2022/12/15 00:42:53;;;;;;;;;;;;;;;16.99;70.08;100091.69;7405369;19;1625;-74
2022/12/15 00:46:53;;;;;;;;;;;;;;;16.93;69.93;100089.59;7403058;19;1560;-74
2022/12/15 00:48:11;;;;;;;;;;;;;;;16.87;70.07;100100.78;7406807;19;1861;-74
2022/12/15 00:50:55;;;;;;;;;;;;;;;16.86;70.17;100104.47;7405706;19;1597;-74
2022/12/15 01:20:19;;;;;;;;;;;;;;;18.83;63.86;100089.59;7413279;19;1648;-63
2022/12/15 01:22:48;;;;;;;;;;;;;;;18.87;63.91;100087.44;7412069;19;1616;-75
2022/12/15 01:25:17;;;;;;;;;;;;;;;18.99;63.60;100091.59;7416293;19;1550;-63
2022/12/15 01:27:47;;;;;;;;;;;;;;;19.35;62.66;100085.41;7419125;19;1631;-64
2022/12/15 01:30:16;;;;;;;;;;;;;;;18.94;63.85;100090.34;7409964;19;1831;-63
2022/12/15 01:32:47;;;;;;;;;;;;;;;18.22;65.77;100088.34;7413375;19;1174;-63
2022/12/15 01:35:16;;;;;;;;;;;;;;;17.73;67.24;100081.41;7409880;19;1551;-64
2022/12/15 01:37:45;;;;;;;;;;;;;;;17.46;67.97;100107.88;7409666;19;1584;-74
2022/12/15 01:43:11;;;;;;;;;;;;;;;17.17;68.86;100099.00;7405098;19;1679;-74
2022/12/15 01:45:57;;;;;;;;;;;;;;;17.05;69.20;100090.28;7410356;19;1388;-63
2022/12/15 01:48:31;;;;;;;;;;;;;;;16.99;69.25;100081.00;7409357;19;1857;-62
2022/12/15 01:51:02;;;;;;;;;;;;;;;16.91;69.61;100080.88;7410734;19;1633;-64
2022/12/15 01:53:34;;;;;;;;;;;;;;;16.87;69.88;100079.44;7411194;19;1640;-64
2022/12/15 01:56:03;;;;;;;;;;;;;;;16.88;69.92;100083.81;7409940;19;1470;-74
2022/12/15 01:58:31;;;;;;;;;;;;;;;16.84;69.96;100088.56;7411120;19;1399;-63
2022/12/15 02:01:02;;;;;;;;;;;;;;;16.80;69.68;100079.13;7411455;19;1538;-71
2022/12/15 02:03:33;;;;;;;;;;;;;;;16.74;69.98;100070.81;7410155;19;1391;-63
2022/12/15 02:06:02;;;;;;;;;;;;;;;16.77;69.91;100083.88;7409277;19;1668;-74
2022/12/15 02:08:31;;;;;;;;;;;;;;;16.71;69.77;100058.56;7410336;19;1849;-64
2022/12/15 02:11:09;;;;;;;;;;;;;;;16.70;69.88;100071.09;7408471;19;1478;-74
2022/12/15 02:13:47;;;;;;;;;;;;;;;17.01;69.21;100079.06;7408553;19;1578;-63
2022/12/15 02:16:20;;;;;;;;;;;;;;;18.14;65.61;100082.00;7409101;19;1411;-63
2022/12/15 02:18:55;;;;;;;;;;;;;;;18.71;63.83;100065.81;7410589;19;1494;-64
2022/12/15 02:21:29;;;;;;;;;;;;;;;18.88;63.31;100060.50;7407066;19;1589;-73
2022/12/15 02:24:27;;;;;;;;;;;;;;;18.87;63.33;100047.25;7410773;19;1780;-63
2022/12/15 02:27:10;;;;;;;;;;;;;;;19.29;62.25;100065.41;7406978;19;1486;-64
2022/12/15 02:29:59;;;;;;;;;;;;;;;19.47;61.86;100060.03;7407570;19;1922;-63
2022/12/15 02:32:33;;;;;;;;;;;;;;;18.86;63.51;100041.06;7409237;19;1429;-74
2022/12/15 02:35:04;;;;;;;;;;;;;;;18.13;65.64;100040.19;7407962;19;1502;-64
2022/12/15 02:37:34;;;;;;;;;;;;;;;17.65;66.98;100020.63;7409354;19;1792;-63
2022/12/15 02:40:03;;;;;;;;;;;;;;;17.39;67.81;100039.94;7407633;19;1558;-74
2022/12/15 02:42:32;;;;;;;;;;;;;;;17.22;68.27;100035.31;7408481;19;1807;-63
2022/12/15 02:45:04;;;;;;;;;;;;;;;17.14;68.43;100067.25;7409141;19;1486;-74
2022/12/15 02:47:44;;;;;;;;;;;;;;;17.08;68.70;100069.47;7409368;19;1493;-74
2022/12/15 02:50:28;;;;;;;;;;;;;;;16.99;68.94;100062.31;7405599;19;1851;-64
2022/12/15 02:53:02;;;;;;;;;;;;;;;16.93;68.86;100057.53;7408636;19;1538;-74
2022/12/15 02:55:35;;;;;;;;;;;;;;;16.49;69.19;100006.28;7407555;19;1554;-64
2022/12/15 02:58:05;;;;;;;;;;;;;;;16.81;69.31;100070.16;7408371;19;1490;-63
2022/12/15 03:00:38;;;;;;;;;;;;;;;16.79;69.30;100071.25;7404404;19;1312;-63
2022/12/15 03:03:09;;;;;;;;;;;;;;;16.77;69.43;100062.53;7402774;19;1449;-63
2022/12/15 03:05:38;;;;;;;;;;;;;;;16.74;69.51;100063.66;7403844;19;1357;-63
2022/12/15 03:08:08;;;;;;;;;;;;;;;16.72;69.71;100064.78;7406412;19;1486;-63
2022/12/15 03:10:36;;;;;;;;;;;;;;;16.72;69.56;100083.47;7404333;19;1843;-63
2022/12/15 03:13:04;;;;;;;;;;;;;;;16.79;69.55;100077.44;7404683;19;1470;-63
2022/12/15 03:15:32;;;;;;;;;;;;;;;17.82;66.28;100065.31;7405169;19;1428;-63
2022/12/15 03:18:01;;;;;;;;;;;;;;;18.51;64.40;100089.19;7405380;19;1396;-63
2022/12/15 03:20:32;;;;;;;;;;;;;;;18.90;63.26;100083.63;7404969;19;1414;-63
2022/12/15 03:23:00;;;;;;;;;;;;;;;18.83;63.54;100086.06;7405981;19;1423;-63
2022/12/15 03:25:29;;;;;;;;;;;;;;;18.98;62.94;100079.19;7405844;19;948;-63
2022/12/15 03:27:57;;;;;;;;;;;;;;;19.41;62.06;100080.25;7405659;19;1490;-63
2022/12/15 03:30:26;;;;;;;;;;;;;;;19.28;62.25;100072.63;7403179;19;1875;-63
2022/12/15 03:32:54;;;;;;;;;;;;;;;18.62;64.01;100075.56;7403376;19;1625;-63
2022/12/15 03:35:23;;;;;;;;;;;;;;;18.01;66.00;100079.69;7405211;19;1502;-63
2022/12/15 03:37:53;;;;;;;;;;;;;;;17.61;67.03;100083.41;7402148;19;1633;-63
2022/12/15 03:40:22;;;;;;;;;;;;;;;17.35;67.80;100099.16;7404835;19;1443;-63
2022/12/15 03:42:50;;;;;;;;;;;;;;;17.19;68.23;100089.03;7403952;19;1435;-63
2022/12/15 03:45:19;;;;;;;;;;;;;;;17.13;68.46;100084.25;7399089;19;1311;-63
2022/12/15 03:47:48;;;;;;;;;;;;;;;17.04;68.65;100089.44;7405292;19;1541;-63
2022/12/15 03:50:18;;;;;;;;;;;;;;;16.96;68.75;100091.97;7401698;19;1868;-63
2022/12/15 03:52:46;;;;;;;;;;;;;;;16.95;69.10;100111.66;7402573;19;1621;-63
2022/12/15 03:55:17;;;;;;;;;;;;;;;16.83;69.09;100088.69;7404944;19;1379;-63
2022/12/15 03:57:46;;;;;;;;;;;;;;;16.81;69.17;100103.97;7404732;19;1484;-63
2022/12/15 04:00:17;;;;;;;;;;;;;;;16.74;69.33;100095.69;7404070;19;1791;-63
2022/12/15 04:02:45;;;;;;;;;;;;;;;16.73;69.24;100087.81;7402332;19;1680;-63
2022/12/15 04:05:16;;;;;;;;;;;;;;;16.74;69.58;100097.53;7401070;19;1550;-63
2022/12/15 04:07:45;;;;;;;;;;;;;;;16.69;69.59;100092.56;7402171;19;1540;-63
2022/12/15 04:10:13;;;;;;;;;;;;;;;16.70;69.45;100096.94;7401966;19;1844;-63
2022/12/15 04:12:44;;;;;;;;;;;;;;;16.68;69.60;100097.06;7403427;19;1427;-63
2022/12/15 04:15:13;;;;;;;;;;;;;;;17.72;66.28;100075.19;7403006;19;1450;-63
2022/12/15 04:17:41;;;;;;;;;;;;;;;18.57;63.84;100084.06;7403686;19;1011;-63
2022/12/15 04:20:08;;;;;;;;;;;;;;;18.90;62.87;100103.22;7401373;19;1609;-63
2022/12/15 04:22:36;;;;;;;;;;;;;;;18.77;63.58;100100.03;7403657;19;1498;-63
2022/12/15 05:32:23;;;;;;;;;;;;;;;18.10;71.07;100223.25;7409721;19;1440;-64
2022/12/15 05:34:51;;;;;;;;;;;;;;;18.06;71.05;100227.22;7406365;19;1427;-69
2022/12/15 05:37:20;;;;;;;;;;;;;;;18.02;71.27;100226.66;7405438;19;1514;-63
2022/12/15 05:39:48;;;;;;;;;;;;;;;17.96;71.20;100245.94;7409235;19;1595;-64
2022/12/15 05:42:16;;;;;;;;;;;;;;;17.78;71.41;100245.78;7407007;19;1293;-64
2022/12/15 05:44:45;;;;;;;;;;;;;;;17.66;71.47;100237.03;7409675;19;1081;-64
2022/12/15 05:47:13;;;;;;;;;;;;;;;17.65;71.56;100240.72;7405567;19;1692;-64
2022/12/15 05:49:44;;;;;;;;;;;;;;;17.50;70.41;100272.34;7403669;19;1841;-64
2022/12/15 05:52:12;;;;;;;;;;;;;;;17.45;70.65;100266.56;7408445;19;1020;-64
2022/12/15 05:54:41;;;;;;;;;;;;;;;17.46;70.82;100284.28;7407806;19;1688;-64
2022/12/15 05:57:09;;;;;;;;;;;;;;;17.35;71.01;100284.41;7405717;19;1637;-64
2022/12/15 05:59:38;;;;;;;;;;;;;;;17.27;71.38;100279.75;7409084;19;1616;-64
2022/12/15 06:02:06;;;;;;;;;;;;;;;17.23;71.34;100306.84;7405865;19;1526;-64
2022/12/15 06:04:34;;;;;;;;;;;;;;;17.20;71.67;100315.16;7406896;19;1611;-64
2022/12/15 06:07:05;;;;;;;;;;;;;;;17.13;71.60;100303.31;7407829;19;1593;-64
2022/12/15 06:09:33;;;;;;;;;;;;;;;17.12;71.60;100306.97;7408542;19;1861;-64
2022/12/15 06:12:02;;;;;;;;;;;;;;;17.14;71.69;100318.38;7404485;19;1032;-66
2022/12/15 06:14:30;;;;;;;;;;;;;;;17.27;71.19;100327.03;7407163;19;1569;-64
2022/12/15 06:16:58;;;;;;;;;;;;;;;18.24;67.47;100323.69;7406920;19;1672;-63
2022/12/15 06:19:27;;;;;;;;;;;;;;;18.78;65.60;100316.00;7407079;19;1556;-63
2022/12/15 06:21:55;;;;;;;;;;;;;;;19.17;64.74;100330.16;7408008;19;1632;-63
2022/12/15 06:24:26;;;;;;;;;;;;;;;19.29;64.32;100330.81;7408303;19;1005;-63
2022/12/15 06:26:54;;;;;;;;;;;;;;;19.33;64.08;100340.22;7404952;19;1659;-63
2022/12/15 06:29:23;;;;;;;;;;;;;;;19.37;64.08;100360.41;7404931;19;1870;-63
2022/12/15 06:31:51;;;;;;;;;;;;;;;19.42;63.77;100357.28;7405796;19;1680;-63
2022/12/15 06:34:20;;;;;;;;;;;;;;;18.80;65.99;100364.94;7403994;19;1336;-63
2022/12/15 06:36:49;;;;;;;;;;;;;;;18.29;67.14;100367.78;7404825;19;1500;-64
2022/12/15 06:39:17;;;;;;;;;;;;;;;18.00;68.40;100378.44;7406155;19;1671;-64
2022/12/15 06:41:48;;;;;;;;;;;;;;;17.76;68.96;100367.25;7406559;19;1621;-64
2022/12/15 06:44:17;;;;;;;;;;;;;;;17.60;69.52;100367.78;7406222;19;1664;-65
2022/12/15 06:46:46;;;;;;;;;;;;;;;17.54;69.75;100384.34;7406646;19;1621;-64
2022/12/15 06:49:14;;;;;;;;;;;;;;;17.50;69.80;100403.31;7407734;19;1002;-65
2022/12/15 06:51:43;;;;;;;;;;;;;;;17.45;69.90;100392.22;7404366;19;1860;-65
2022/12/15 06:54:12;;;;;;;;;;;;;;;17.48;69.82;100413.31;7405048;19;1665;-65
2022/12/15 06:56:41;;;;;;;;;;;;;;;17.54;70.02;100413.78;7405485;19;1364;-65
2022/12/15 06:59:13;;;;;;;;;;;;;;;17.48;69.83;100402.63;7404834;19;1407;-64
2022/12/15 07:01:43;;;;;;;;;;;;;;;17.49;69.80;100401.66;7405103;19;1418;-65
2022/12/15 07:04:11;;;;;;;;;;;;;;;17.42;69.82;100413.00;7404780;19;992;-64
2022/12/15 07:06:41;;;;;;;;;;;;;;;17.44;69.63;100421.75;7406029;19;1517;-64
2022/12/15 07:09:14;;;;;;;;;;;;;;;17.35;70.01;100435.91;7403641;19;1668;-64
2022/12/15 07:11:43;;;;;;;;;;;;;;;17.28;69.83;100416.88;7404442;19;2128;-63
2022/12/15 07:14:15;;;;;;;;;;;;;;;17.27;70.21;100425.91;7404680;19;1590;-64
2022/12/15 07:16:44;;;;;;;;;;;;;;;17.29;69.94;100440.81;7405233;19;1488;-64
2022/12/15 07:19:13;;;;;;;;;;;;;;;17.34;69.88;100445.75;7405800;19;943;-64
2022/12/15 07:21:42;;;;;;;;;;;;;;;17.26;69.98;100448.22;7406576;19;1011;-65
2022/12/15 07:24:11;;;;;;;;;;;;;;;17.21;69.88;100439.75;7405390;19;1562;-63
2022/12/15 07:26:40;;;;;;;;;;;;;;;17.15;70.20;100450.97;7404579;19;1490;-63
2022/12/15 07:29:08;;;;;;;;;;;;;;;17.06;70.54;100464.13;7403755;19;1633;-64
2022/12/15 07:31:39;;;;;;;;;;;;;;;16.90;70.64;100469.09;7402834;19;1834;-63
2022/12/15 07:34:07;;;;;;;;;;;;;;;16.95;70.52;100482.03;7405119;19;1022;-63
2022/12/15 07:36:36;;;;;;;;;;;;;;;17.82;67.62;100471.00;7404967;19;1446;-63
2022/12/15 07:39:05;;;;;;;;;;;;;;;18.54;65.29;100469.09;7404630;19;1743;-63
2022/12/15 07:41:34;;;;;;;;;;;;;;;18.77;64.07;100473.19;7403888;19;1758;-62
2022/12/15 07:44:02;;;;;;;;;;;;;;;18.72;63.51;100485.31;7404360;19;1669;-63
2022/12/15 07:46:30;;;;;;;;;;;;;;;19.04;62.32;100493.97;7403945;19;1542;-63
2022/12/15 07:49:01;;;;;;;;;;;;;;;19.25;61.84;100498.28;7404347;19;977;-63
2022/12/15 07:51:30;;;;;;;;;;;;;;;18.97;61.53;100415.13;7401841;19;1861;-63
2022/12/15 07:53:58;;;;;;;;;;;;;;;19.42;61.63;100494.88;7402533;19;1680;-64
2022/12/15 07:56:26;;;;;;;;;;;;;;;19.64;61.08;100492.84;7402564;19;1537;-64
2022/12/15 07:58:55;;;;;;;;;;;;;;;19.56;61.06;100495.44;7402691;19;1628;-65
2022/12/15 08:01:23;;;;;;;;;;;;;;;19.40;61.75;100494.19;7404871;19;1545;-65
2022/12/15 08:03:51;;;;;;;;;;;;;;;19.01;62.93;100506.78;7403591;19;960;-65
2022/12/15 08:06:23;;;;;;;;;;;;;;;18.35;64.82;100536.88;7404255;19;1581;-63
2022/12/15 08:08:52;;;;;;;;;;;;;;;18.03;65.74;100529.84;7403414;19;1545;-63
2022/12/15 08:11:23;;;;;;;;;;;;;;;17.71;66.76;100514.75;7401625;19;1849;-64
2022/12/15 08:13:51;;;;;;;;;;;;;;;17.56;67.30;100513.41;7403838;19;1586;-63
2022/12/15 08:16:20;;;;;;;;;;;;;;;17.49;67.32;100518.44;7402741;19;1435;-63
2022/12/15 08:18:48;;;;;;;;;;;;;;;17.41;67.69;100531.63;7403328;19;980;-64
2022/12/15 08:21:16;;;;;;;;;;;;;;;17.40;67.89;100529.91;7402879;19;1739;-64
2022/12/15 08:23:48;;;;;;;;;;;;;;;17.31;68.05;100531.56;7403072;19;1668;-63
2022/12/15 08:26:17;;;;;;;;;;;;;;;17.26;68.03;100536.44;7403255;19;1621;-64
2022/12/15 08:28:45;;;;;;;;;;;;;;;17.25;68.18;100524.91;7402545;19;1649;-64
2022/12/15 08:31:15;;;;;;;;;;;;;;;17.24;68.28;100535.72;7401006;19;1859;-64
2022/12/15 08:33:43;;;;;;;;;;;;;;;17.21;68.28;100541.28;7402980;19;999;-64
2022/12/15 08:36:13;;;;;;;;;;;;;;;17.16;68.48;100554.22;7402737;19;1762;-64
2022/12/15 08:38:42;;;;;;;;;;;;;;;17.11;68.59;100546.59;7401250;19;1593;-63
2022/12/15 08:41:14;;;;;;;;;;;;;;;17.09;68.37;100538.69;7402443;19;1430;-61
2022/12/15 08:43:43;;;;;;;;;;;;;;;17.00;68.87;100544.81;7401551;19;1400;-64
2022/12/15 08:46:12;;;;;;;;;;;;;;;17.68;66.93;100555.97;7403058;19;1348;-64
2022/12/15 08:48:40;;;;;;;;;;;;;;;18.34;64.74;100545.88;7401858;19;966;-66
2022/12/15 08:51:08;;;;;;;;;;;;;;;18.78;63.57;100551.72;7401561;19;1853;-64
2022/12/15 08:53:37;;;;;;;;;;;;;;;19.07;62.85;100530.34;7402039;19;1356;-64
2022/12/15 08:56:06;;;;;;;;;;;;;;;19.35;61.92;100542.03;7399212;19;1536;-65
2022/12/15 08:58:37;;;;;;;;;;;;;;;19.44;61.74;100530.44;7402594;19;1624;-64
2022/12/15 09:01:06;;;;;;;;;;;;;;;19.52;61.78;100537.78;7400805;19;1296;-65
2022/12/15 09:03:35;;;;;;;;;;;;;;;19.62;61.48;100543.13;7402569;19;1032;-65
2022/12/15 09:06:03;;;;;;;;;;;;;;;19.72;60.98;100533.22;7402915;19;1774;-64
2022/12/15 09:08:32;;;;;;;;;;;;;;;19.69;61.18;100546.91;7400363;19;1785;-61
2022/12/15 09:11:01;;;;;;;;;;;;;;;19.52;61.69;100536.91;7400420;19;1849;-61
2022/12/15 09:13:29;;;;;;;;;;;;;;;19.19;62.85;100539.91;7401194;19;1554;-61
2022/12/15 09:16:01;;;;;;;;;;;;;;;18.55;64.41;100543.09;7401405;19;1534;-61
2022/12/15 09:18:29;;;;;;;;;;;;;;;18.06;65.95;100548.28;7401511;19;1534;-61
2022/12/15 09:21:02;;;;;;;;;;;;;;;17.80;66.60;100531.81;7399610;19;1771;-61
2022/12/15 09:23:30;;;;;;;;;;;;;;;17.64;66.90;100551.84;7402521;19;987;-61
2022/12/15 09:26:01;;;;;;;;;;;;;;;17.49;67.19;100546.00;7400458;19;1535;-62
2022/12/15 09:28:30;;;;;;;;;;;;;;;17.41;67.76;100559.19;7401743;19;1754;-61
2022/12/15 09:31:06;;;;;;;;;;;;;;;17.40;67.67;100567.34;7401205;19;1850;-60
2022/12/15 09:33:34;;;;;;;;;;;;;;;17.30;67.77;100564.59;7407953;19;1645;-62
2022/12/15 09:36:02;;;;;;;;;;;;;;;17.26;68.15;100572.00;7408065;19;1617;-61
2022/12/15 09:38:31;;;;;;;;;;;;;;;17.26;68.26;100563.16;7405695;19;1502;-61
2022/12/15 09:40:59;;;;;;;;;;;;;;;17.24;67.90;100573.13;7407214;19;1450;-61
2022/12/15 09:43:29;;;;;;;;;;;;;;;17.21;67.98;100568.03;7407113;19;1407;-62
2022/12/15 09:46:02;;;;;;;;;;;;;;;17.12;68.10;100560.78;7406734;19;1506;-61
2022/12/15 09:48:38;;;;;;;;;;;;;;;17.10;68.41;100559.09;7407936;19;950;-61
2022/12/15 09:51:10;;;;;;;;;;;;;;;16.99;68.56;100556.47;7406194;19;1893;-60
2022/12/15 09:53:38;;;;;;;;;;;;;;;17.04;68.65;100562.25;7408696;19;1624;-61
2022/12/15 09:56:09;;;;;;;;;;;;;;;17.84;66.27;100560.88;7406425;19;1484;-61
2022/12/15 09:58:42;;;;;;;;;;;;;;;18.67;63.43;100569.63;7407568;19;1627;-63
2022/12/15 10:01:14;;;;;;;;;;;;;;;18.86;62.85;100555.44;7408116;19;1644;-65
2022/12/15 10:03:49;;;;;;;;;;;;;;;19.12;62.28;100551.34;7408553;19;956;-63
2022/12/15 10:06:20;;;;;;;;;;;;;;;19.29;61.93;100558.69;7404078;19;1565;-63
2022/12/15 10:08:50;;;;;;;;;;;;;;;19.47;61.40;100551.59;7407775;19;1530;-64
2022/12/15 10:11:21;;;;;;;;;;;;;;;19.56;61.43;100576.72;7404701;19;1842;-63
2022/12/15 10:13:53;;;;;;;;;;;;;;;19.56;61.32;100575.88;7406993;19;1550;-63
2022/12/15 10:16:24;;;;;;;;;;;;;;;19.60;61.47;100582.66;7407751;19;1633;-64
2022/12/15 10:19:09;;;;;;;;;;;;;;;19.55;61.33;100574.19;7406906;19;1400;-64
2022/12/15 10:21:38;;;;;;;;;;;;;;;19.34;61.99;100566.28;7407845;19;1718;-66
2022/12/15 10:24:18;;;;;;;;;;;;;;;18.98;63.08;100588.31;7406959;19;1720;-62
2022/12/15 10:26:50;;;;;;;;;;;;;;;18.34;64.61;100594.03;7406997;19;1535;-63
2022/12/15 10:29:29;;;;;;;;;;;;;;;18.05;65.77;100578.72;7407124;19;1758;-64
2022/12/15 10:32:02;;;;;;;;;;;;;;;17.82;66.45;100578.84;7404249;19;1866;-64
2022/12/15 10:34:34;;;;;;;;;;;;;;;17.68;66.81;100592.56;7404061;19;1444;-64
2022/12/15 10:37:03;;;;;;;;;;;;;;;17.59;67.17;100582.66;7406155;19;1664;-64
2022/12/15 10:39:40;;;;;;;;;;;;;;;17.53;67.07;100586.72;7407313;19;944;-64
2022/12/15 10:42:12;;;;;;;;;;;;;;;17.50;67.27;100585.13;7407959;19;1030;-64
2022/12/15 10:44:42;;;;;;;;;;;;;;;17.45;67.36;100587.34;7406129;19;1469;-63
2022/12/15 10:47:12;;;;;;;;;;;;;;;17.33;67.40;100575.03;7406400;19;1776;-64
2022/12/15 10:49:43;;;;;;;;;;;;;;;17.31;67.65;100590.34;7401751;19;1399;-64
2022/12/15 10:52:18;;;;;;;;;;;;;;;17.29;67.70;100585.13;7405053;19;1861;-64
2022/12/15 10:54:47;;;;;;;;;;;;;;;17.30;67.77;100596.66;7405637;19;1764;-64
2022/12/15 10:57:20;;;;;;;;;;;;;;;17.23;67.98;100587.44;7404177;19;1578;-64
2022/12/15 10:59:49;;;;;;;;;;;;;;;17.20;67.78;100587.72;7405156;19;1613;-65
2022/12/15 11:02:31;;;;;;;;;;;;;;;17.20;67.95;100585.03;7406014;19;1348;-65
2022/12/15 11:05:03;;;;;;;;;;;;;;;17.31;67.83;100587.69;7405962;19;1514;-64
2022/12/15 11:07:35;;;;;;;;;;;;;;;18.06;65.24;100577.72;7404260;19;1445;-65
2022/12/15 11:10:11;;;;;;;;;;;;;;;18.65;63.69;100586.81;7403121;19;1407;-65
2022/12/15 11:12:52;;;;;;;;;;;;;;;19.00;62.50;100577.44;7403834;19;1865;-65
2022/12/15 11:15:35;;;;;;;;;;;;;;;19.25;62.24;100570.69;7404783;19;1581;-63
2022/12/15 11:18:09;;;;;;;;;;;;;;;19.41;62.09;100578.97;7406069;19;928;-63
2022/12/15 11:20:43;;;;;;;;;;;;;;;19.54;61.74;100588.59;7403507;19;1673;-65
2022/12/15 11:23:17;;;;;;;;;;;;;;;19.60;61.21;100590.69;7404211;19;1524;-64
2022/12/15 11:25:48;;;;;;;;;;;;;;;19.70;60.83;100588.84;7404092;19;1716;-65
2022/12/15 11:28:18;;;;;;;;;;;;;;;19.66;61.14;100572.19;7403908;19;1553;-63
2022/12/15 11:30:48;;;;;;;;;;;;;;;19.52;61.50;100578.00;7403648;19;1617;-64
2022/12/15 11:33:16;;;;;;;;;;;;;;;19.33;62.32;100596.78;7404086;19;1847;-64
2022/12/15 11:35:54;;;;;;;;;;;;;;;18.67;63.93;100609.78;7402448;19;1474;-65
2022/12/15 11:38:27;;;;;;;;;;;;;;;18.16;65.28;100601.88;7402081;19;1482;-63
2022/12/15 11:40:56;;;;;;;;;;;;;;;17.94;66.12;100618.94;7403205;19;1589;-63
2022/12/15 11:43:32;;;;;;;;;;;;;;;17.76;66.40;100590.06;7403308;19;1546;-63
2022/12/15 11:46:05;;;;;;;;;;;;;;;17.66;66.76;100611.41;7402650;19;1340;-63
2022/12/15 11:48:37;;;;;;;;;;;;;;;17.55;66.82;100592.78;7403835;19;1017;-62
2022/12/15 11:51:13;;;;;;;;;;;;;;;17.53;67.17;100605.44;7403396;19;1614;-63
2022/12/15 11:53:49;;;;;;;;;;;;;;;17.45;67.17;100603.38;7403509;19;1560;-64
2022/12/15 11:56:23;;;;;;;;;;;;;;;17.41;67.18;100612.66;7402924;19;1546;-64
2022/12/15 11:59:04;;;;;;;;;;;;;;;17.30;67.47;100615.38;7403376;19;1661;-65
2022/12/15 12:01:45;;;;;;;;;;;;;;;17.30;67.53;100618.03;7400989;19;1301;-65
2022/12/15 12:04:19;;;;;;;;;;;;;;;17.26;67.66;100613.91;7404236;19;1042;-66
2022/12/15 12:06:57;;;;;;;;;;;;;;;17.24;67.56;100621.22;7405212;19;976;-64
2022/12/15 12:09:33;;;;;;;;;;;;;;;17.19;68.06;100620.75;7404684;19;941;-65
2022/12/15 12:12:06;;;;;;;;;;;;;;;17.14;68.12;100622.97;7403620;19;1854;-65
2022/12/15 12:14:40;;;;;;;;;;;;;;;17.17;68.06;100633.38;7402565;19;1450;-64
2022/12/15 12:17:12;;;;;;;;;;;;;;;17.92;65.74;100621.72;7403703;19;1758;-65
2022/12/15 12:19:44;;;;;;;;;;;;;;;18.43;64.17;100615.50;7400076;19;1747;-65
2022/12/15 12:22:23;;;;;;;;;;;;;;;18.93;62.94;100617.34;7403937;19;1632;-64
2022/12/15 12:24:54;;;;;;;;;;;;;;;19.15;62.61;100618.09;7404366;19;1640;-65
2022/12/15 12:27:27;;;;;;;;;;;;;;;19.30;62.16;100627.41;7403304;19;1542;-65
2022/12/15 12:30:00;;;;;;;;;;;;;;;19.42;61.67;100628.97;7404776;19;963;-65
2022/12/15 12:32:34;;;;;;;;;;;;;;;19.54;61.55;100629.66;7401510;19;1850;-63
2022/12/15 12:35:05;;;;;;;;;;;;;;;19.59;61.27;100618.50;7403722;19;1549;-66
2022/12/15 12:37:37;;;;;;;;;;;;;;;19.65;60.93;100634.84;7402061;19;1482;-64
2022/12/15 12:40:07;;;;;;;;;;;;;;;19.50;61.55;100633.63;7402174;19;1607;-65
2022/12/15 12:42:39;;;;;;;;;;;;;;;19.32;62.18;100652.25;7402275;19;1362;-64
2022/12/15 12:45:08;;;;;;;;;;;;;;;18.71;63.44;100655.06;7403002;19;1542;-63
2022/12/15 12:47:39;;;;;;;;;;;;;;;18.21;65.11;100651.34;7403354;19;1408;-66
2022/12/15 12:50:15;;;;;;;;;;;;;;;17.98;65.90;100672.03;7402611;19;1541;-61
2022/12/15 12:52:52;;;;;;;;;;;;;;;17.76;66.38;100654.25;7401232;19;1865;-62
2022/12/15 12:55:31;;;;;;;;;;;;;;;17.66;66.59;100664.03;7402151;19;1612;-62
2022/12/15 12:58:00;;;;;;;;;;;;;;;17.57;66.95;100671.03;7402946;19;1624;-61
2022/12/15 13:00:29;;;;;;;;;;;;;;;17.49;67.25;100666.31;7402854;19;983;-62
2022/12/15 13:03:11;;;;;;;;;;;;;;;17.42;67.32;100656.25;7402083;19;1764;-61
2022/12/15 13:05:40;;;;;;;;;;;;;;;17.31;67.39;100665.19;7402371;19;1740;-62
2022/12/15 13:08:30;;;;;;;;;;;;;;;17.29;67.58;100685.84;7408246;19;1621;-62
2022/12/15 13:11:18;;;;;;;;;;;;;;;17.20;67.48;100674.06;7409076;19;1356;-62
2022/12/15 13:13:48;;;;;;;;;;;;;;;17.18;67.85;100699.22;7404486;19;1842;-62
2022/12/15 13:16:21;;;;;;;;;;;;;;;17.13;68.14;100693.41;7408682;19;1403;-61
2022/12/15 13:19:00;;;;;;;;;;;;;;;17.00;68.35;100698.91;7408509;19;1356;-62
2022/12/15 13:21:44;;;;;;;;;;;;;;;17.02;68.32;100703.13;7409032;19;1557;-62
2022/12/15 13:24:24;;;;;;;;;;;;;;;16.99;68.50;100703.41;7409443;19;1695;-61
2022/12/15 13:26:52;;;;;;;;;;;;;;;17.70;66.11;100690.41;7409633;19;1668;-61
2022/12/15 13:29:23;;;;;;;;;;;;;;;18.44;64.00;100691.31;7408532;19;1763;-61
2022/12/15 13:31:52;;;;;;;;;;;;;;;18.85;62.56;100692.22;7407435;19;1838;-62
2022/12/15 13:34:25;;;;;;;;;;;;;;;19.02;62.23;100701.41;7408873;19;1538;-61
2022/12/15 13:36:54;;;;;;;;;;;;;;;19.23;61.86;100710.22;7409013;19;1485;-62
2022/12/15 13:39:41;;;;;;;;;;;;;;;19.43;61.35;100719.13;7409251;19;1014;-61
2022/12/15 13:42:29;;;;;;;;;;;;;;;19.59;60.98;100710.53;7406327;19;997;-61
2022/12/15 13:45:05;;;;;;;;;;;;;;;19.64;60.75;100718.19;7407816;19;1593;-63
2022/12/15 13:47:34;;;;;;;;;;;;;;;19.67;60.70;100707.16;7409971;19;1009;-62
2022/12/15 13:50:03;;;;;;;;;;;;;;;19.65;60.76;100701.09;7406149;19;1688;-62
2022/12/15 13:52:36;;;;;;;;;;;;;;;19.56;61.19;100707.31;7407169;19;1834;-62
2022/12/15 13:55:07;;;;;;;;;;;;;;;18.83;63.11;100707.59;7409510;19;981;-61
2022/12/15 13:57:47;;;;;;;;;;;;;;;18.28;64.75;100707.84;7407767;19;1731;-59
2022/12/15 14:00:17;;;;;;;;;;;;;;;17.96;65.96;100715.97;7406802;19;1486;-62
2022/12/15 14:02:46;;;;;;;;;;;;;;;17.77;66.39;100705.94;7407656;19;1787;-60
2022/12/15 14:05:16;;;;;;;;;;;;;;;17.62;67.11;100695.53;7405453;19;1739;-63
2022/12/15 14:07:46;;;;;;;;;;;;;;;17.59;67.27;100706.50;7407737;19;1678;-64
2022/12/15 14:10:19;;;;;;;;;;;;;;;17.52;67.31;100726.69;7408295;19;1502;-61
2022/12/15 14:12:52;;;;;;;;;;;;;;;17.54;67.77;100723.91;7406172;19;1849;-65
2022/12/15 14:15:25;;;;;;;;;;;;;;;17.47;68.11;100732.44;7406541;19;1604;-63
2022/12/15 14:17:55;;;;;;;;;;;;;;;17.41;68.36;100748.97;7405820;19;988;-59
2022/12/15 14:20:24;;;;;;;;;;;;;;;17.27;68.87;100747.44;7405516;19;1498;-61
2022/12/15 14:22:53;;;;;;;;;;;;;;;17.23;69.22;100747.78;7403137;19;1596;-61
2022/12/15 14:25:23;;;;;;;;;;;;;;;17.17;69.36;100750.94;7399448;19;1538;-61
2022/12/15 14:27:54;;;;;;;;;;;;;;;17.08;69.42;100769.44;7405135;19;1411;-61
2022/12/15 14:30:25;;;;;;;;;;;;;;;17.06;69.47;100779.38;7407372;19;1018;-61
2022/12/15 14:32:56;;;;;;;;;;;;;;;17.06;70.39;100776.72;7402634;19;1857;-59
2022/12/15 14:35:30;;;;;;;;;;;;;;;17.30;69.18;100773.06;7405451;19;1759;-61
2022/12/15 14:37:59;;;;;;;;;;;;;;;18.00;66.98;100757.53;7403529;19;1577;-61
2022/12/15 14:40:28;;;;;;;;;;;;;;;18.27;65.63;100749.84;7405447;19;1522;-61
2022/12/15 14:42:59;;;;;;;;;;;;;;;18.45;64.96;100751.94;7406188;19;1345;-61
2022/12/15 14:45:29;;;;;;;;;;;;;;;18.45;65.50;100773.34;7406830;19;1655;-61
2022/12/15 14:47:59;;;;;;;;;;;;;;;18.61;64.96;100773.72;7404727;19;992;-61
2022/12/15 14:50:28;;;;;;;;;;;;;;;18.68;64.82;100774.91;7404657;19;1688;-61
2022/12/15 14:52:59;;;;;;;;;;;;;;;18.62;65.10;100770.06;7404575;19;1861;-61
2022/12/15 14:55:31;;;;;;;;;;;;;;;18.72;64.94;100790.69;7405822;19;1443;-61
2022/12/15 14:58:03;;;;;;;;;;;;;;;18.67;64.95;100793.78;7405984;19;1391;-61
2022/12/15 15:00:32;;;;;;;;;;;;;;;18.74;64.89;100780.69;7406963;19;980;-61
2022/12/15 15:03:20;;;;;;;;;;;;;;;18.82;64.74;100791.59;7403764;19;1751;-61
2022/12/15 15:05:51;;;;;;;;;;;;;;;18.88;64.50;100785.75;7404391;19;1439;-61
2022/12/15 15:08:24;;;;;;;;;;;;;;;18.96;64.38;100779.69;7404840;19;1628;-61
2022/12/15 15:10:53;;;;;;;;;;;;;;;18.93;64.30;100788.00;7404961;19;1593;-61
2022/12/15 15:13:25;;;;;;;;;;;;;;;18.85;64.73;100796.72;7403753;19;1861;-62
2022/12/15 15:15:54;;;;;;;;;;;;;;;18.87;64.30;100800.09;7403418;19;1317;-61
2022/12/15 15:18:25;;;;;;;;;;;;;;;18.90;64.32;100799.84;7406161;19;1019;-61
2022/12/15 15:20:56;;;;;;;;;;;;;;;18.93;64.51;100791.53;7404647;19;1750;-61
2022/12/15 15:23:24;;;;;;;;;;;;;;;18.91;64.62;100785.47;7404852;19;1538;-61
2022/12/15 15:25:53;;;;;;;;;;;;;;;18.86;64.29;100782.31;7404537;19;1545;-62